LIFTER3 EDDR-ETOU
Flight info
| Callsign | LIFTER3 |
|---|---|
| Flight time | 0h 27m |
| Altitude | 16000 |
| Route | TOMPI DCT RAMOB DCT TAU |
| Aircraft | A400/H-SDE2E3FGHIJ4J5M1RWXY/LB1D1 |
Departure
| Time | 2026-04-25 09:57 |
|---|---|
| Airport | Saarbrücken Airport (EDDR) |
Arrival
| Time | 2026-04-25 10:24 |
|---|---|
| Airport | Wiesbaden Army Airfield (ETOU) |
| Time | Latitude | Longitude | Altitude | Speed | Heading |
|---|---|---|---|---|---|
| 2026-04-25 09:48 | 49.21843 | 7.11291 | 1080 ft | 0 kts | 345° |
| 2026-04-25 09:54 | 49.21861 | 7.11295 | 1076 ft | 5 kts | 24° |
| 2026-04-25 09:54 | 49.21887 | 7.11372 | 1079 ft | 12 kts | 76° |
| 2026-04-25 09:55 | 49.21884 | 7.11530 | 1078 ft | 17 kts | 107° |
| 2026-04-25 09:55 | 49.21837 | 7.11711 | 1077 ft | 19 kts | 112° |
| 2026-04-25 09:55 | 49.21767 | 7.11888 | 1077 ft | 20 kts | 131° |
| 2026-04-25 09:55 | 49.21671 | 7.12058 | 1071 ft | 22 kts | 131° |
| 2026-04-25 09:56 | 49.21573 | 7.12229 | 1065 ft | 18 kts | 137° |
| 2026-04-25 09:56 | 49.21493 | 7.12152 | 1064 ft | 18 kts | 262° |
| 2026-04-25 09:56 | 49.21473 | 7.11552 | 1079 ft | 120 kts | 268° |
| 2026-04-25 09:56 | 49.21409 | 7.09842 | 1529 ft | 183 kts | 268° |
| 2026-04-25 09:57 | 49.21346 | 7.07847 | 2604 ft | 191 kts | 268° |
| 2026-04-25 09:57 | 49.21294 | 7.06020 | 3172 ft | 183 kts | 268° |
| 2026-04-25 09:57 | 49.21233 | 7.03779 | 3741 ft | 234 kts | 268° |
| 2026-04-25 09:57 | 49.21157 | 7.01148 | 4382 ft | 256 kts | 268° |
| 2026-04-25 09:58 | 49.21267 | 6.98392 | 5141 ft | 263 kts | 285° |
| 2026-04-25 09:58 | 49.22212 | 6.96035 | 5891 ft | 264 kts | 319° |
| 2026-04-25 09:58 | 49.23868 | 6.94926 | 6834 ft | 263 kts | 350° |
| 2026-04-25 09:58 | 49.25702 | 6.94848 | 8031 ft | 268 kts | 7° |
| 2026-04-25 09:59 | 49.27483 | 6.95770 | 9304 ft | 275 kts | 24° |
| 2026-04-25 09:59 | 49.29191 | 6.97165 | 10573 ft | 281 kts | 27° |
| 2026-04-25 09:59 | 49.30906 | 6.98657 | 11799 ft | 286 kts | 27° |
| 2026-04-25 09:59 | 49.32655 | 7.00173 | 13074 ft | 291 kts | 27° |
| 2026-04-25 10:00 | 49.34415 | 7.01681 | 14336 ft | 296 kts | 26° |
| 2026-04-25 10:00 | 49.36245 | 7.03235 | 15297 ft | 305 kts | 26° |
| 2026-04-25 10:00 | 49.38129 | 7.04826 | 15886 ft | 312 kts | 26° |
| 2026-04-25 10:00 | 49.40042 | 7.06447 | 16117 ft | 316 kts | 26° |
| 2026-04-25 10:01 | 49.41969 | 7.08092 | 16148 ft | 317 kts | 26° |
| 2026-04-25 10:01 | 49.43901 | 7.09750 | 16143 ft | 317 kts | 26° |
| 2026-04-25 10:01 | 49.45830 | 7.11410 | 16149 ft | 317 kts | 26° |
| 2026-04-25 10:01 | 49.47791 | 7.13095 | 16134 ft | 332 kts | 26° |
| 2026-04-25 10:02 | 49.49864 | 7.14869 | 16133 ft | 358 kts | 27° |
| 2026-04-25 10:02 | 49.52076 | 7.16763 | 16135 ft | 366 kts | 27° |
| 2026-04-25 10:02 | 49.54308 | 7.18686 | 16147 ft | 366 kts | 26° |
| 2026-04-25 10:02 | 49.56532 | 7.20608 | 16144 ft | 366 kts | 26° |
| 2026-04-25 10:03 | 49.58751 | 7.22529 | 16141 ft | 366 kts | 26° |
| 2026-04-25 10:03 | 49.60974 | 7.24453 | 16143 ft | 366 kts | 27° |
| 2026-04-25 10:03 | 49.63202 | 7.26383 | 16143 ft | 366 kts | 26° |
| 2026-04-25 10:03 | 49.65427 | 7.28310 | 16143 ft | 366 kts | 26° |
| 2026-04-25 10:04 | 49.67651 | 7.30238 | 16140 ft | 366 kts | 26° |
| 2026-04-25 10:04 | 49.69872 | 7.32167 | 16139 ft | 366 kts | 27° |
| 2026-04-25 10:04 | 49.71917 | 7.34527 | 16126 ft | 370 kts | 43° |
| 2026-04-25 10:04 | 49.73329 | 7.37763 | 15905 ft | 360 kts | 64° |
| 2026-04-25 10:05 | 49.74114 | 7.41412 | 15680 ft | 355 kts | 72° |
| 2026-04-25 10:05 | 49.74750 | 7.45087 | 15253 ft | 352 kts | 73° |
| 2026-04-25 10:05 | 49.75367 | 7.48733 | 14769 ft | 348 kts | 73° |
| 2026-04-25 10:05 | 49.75976 | 7.52340 | 14292 ft | 345 kts | 73° |
| 2026-04-25 10:06 | 49.76578 | 7.55916 | 13804 ft | 342 kts | 73° |
| 2026-04-25 10:06 | 49.77174 | 7.59458 | 13276 ft | 339 kts | 73° |
| 2026-04-25 10:06 | 49.77766 | 7.62966 | 12765 ft | 335 kts | 73° |
| 2026-04-25 10:06 | 49.78357 | 7.66449 | 12256 ft | 333 kts | 73° |
| 2026-04-25 10:07 | 49.78946 | 7.69893 | 11745 ft | 330 kts | 73° |
| 2026-04-25 10:07 | 49.79527 | 7.73266 | 11325 ft | 327 kts | 73° |
| 2026-04-25 10:07 | 49.80114 | 7.76657 | 11166 ft | 326 kts | 73° |
| 2026-04-25 10:07 | 49.80702 | 7.80048 | 11155 ft | 326 kts | 73° |
| 2026-04-25 10:08 | 49.81289 | 7.83432 | 11147 ft | 326 kts | 73° |
| 2026-04-25 10:08 | 49.81878 | 7.86828 | 11148 ft | 326 kts | 73° |
| 2026-04-25 10:08 | 49.82467 | 7.90223 | 11142 ft | 326 kts | 73° |
| 2026-04-25 10:08 | 49.83053 | 7.93609 | 11146 ft | 326 kts | 73° |
| 2026-04-25 10:09 | 49.83641 | 7.96996 | 11150 ft | 326 kts | 73° |
| 2026-04-25 10:09 | 49.84229 | 8.00389 | 11152 ft | 326 kts | 73° |
| 2026-04-25 10:09 | 49.84815 | 8.03772 | 11151 ft | 325 kts | 73° |
| 2026-04-25 10:09 | 49.85403 | 8.07164 | 11152 ft | 326 kts | 73° |
| 2026-04-25 10:10 | 49.85989 | 8.10553 | 11152 ft | 326 kts | 73° |
| 2026-04-25 10:10 | 49.86575 | 8.13942 | 11146 ft | 326 kts | 73° |
| 2026-04-25 10:10 | 49.87152 | 8.17291 | 11153 ft | 326 kts | 73° |
| 2026-04-25 10:10 | 49.87737 | 8.20689 | 11153 ft | 326 kts | 73° |
| 2026-04-25 10:11 | 49.88327 | 8.24090 | 11153 ft | 326 kts | 73° |
| 2026-04-25 10:11 | 49.88916 | 8.27482 | 11147 ft | 326 kts | 73° |
| 2026-04-25 10:11 | 49.89506 | 8.30884 | 11123 ft | 327 kts | 73° |
| 2026-04-25 10:11 | 49.90090 | 8.34256 | 10892 ft | 316 kts | 73° |
| 2026-04-25 10:12 | 49.90645 | 8.37483 | 10606 ft | 306 kts | 73° |
| 2026-04-25 10:12 | 49.91190 | 8.40654 | 10316 ft | 302 kts | 73° |
| 2026-04-25 10:12 | 49.92264 | 8.46871 | 9335 ft | 297 kts | 73° |
| 2026-04-25 10:13 | 49.92797 | 8.49948 | 8841 ft | 294 kts | 73° |
| 2026-04-25 10:13 | 49.93325 | 8.52996 | 8363 ft | 290 kts | 73° |
| 2026-04-25 10:13 | 49.93848 | 8.56007 | 8174 ft | 288 kts | 73° |
| 2026-04-25 10:13 | 49.94368 | 8.59006 | 8084 ft | 288 kts | 73° |
| 2026-04-25 10:14 | 49.94889 | 8.62005 | 7665 ft | 287 kts | 73° |
| 2026-04-25 10:14 | 49.95405 | 8.64989 | 7052 ft | 285 kts | 73° |
| 2026-04-25 10:14 | 49.95920 | 8.67953 | 6445 ft | 280 kts | 73° |
| 2026-04-25 10:14 | 49.96399 | 8.70733 | 5875 ft | 254 kts | 73° |
| 2026-04-25 10:15 | 49.96849 | 8.73361 | 5386 ft | 252 kts | 73° |
| 2026-04-25 10:15 | 49.97302 | 8.75994 | 4884 ft | 248 kts | 73° |
| 2026-04-25 10:15 | 49.98045 | 8.78318 | 4383 ft | 240 kts | 46° |
| 2026-04-25 10:15 | 49.99443 | 8.79684 | 4042 ft | 237 kts | 13° |
| 2026-04-25 10:16 | 50.01040 | 8.79715 | 4011 ft | 228 kts | 349° |
| 2026-04-25 10:16 | 50.02554 | 8.79034 | 4000 ft | 227 kts | 335° |
| 2026-04-25 10:16 | 50.03923 | 8.77837 | 4003 ft | 225 kts | 326° |
| 2026-04-25 10:16 | 50.05185 | 8.76427 | 3998 ft | 226 kts | 323° |
| 2026-04-25 10:17 | 50.06433 | 8.74929 | 4004 ft | 226 kts | 322° |
| 2026-04-25 10:17 | 50.07663 | 8.73417 | 3995 ft | 226 kts | 321° |
| 2026-04-25 10:17 | 50.08888 | 8.71891 | 4000 ft | 226 kts | 321° |
| 2026-04-25 10:17 | 50.10099 | 8.70329 | 3999 ft | 226 kts | 316° |
| 2026-04-25 10:18 | 50.10958 | 8.68313 | 4001 ft | 223 kts | 289° |
| 2026-04-25 10:18 | 50.11207 | 8.66079 | 4029 ft | 201 kts | 274° |
| 2026-04-25 10:18 | 50.11057 | 8.63973 | 4016 ft | 194 kts | 258° |
| 2026-04-25 10:18 | 50.10676 | 8.61991 | 4009 ft | 189 kts | 254° |
| 2026-04-25 10:19 | 50.10286 | 8.60046 | 3953 ft | 188 kts | 255° |
| 2026-04-25 10:19 | 50.09897 | 8.58103 | 3736 ft | 187 kts | 255° |
| 2026-04-25 10:19 | 50.09529 | 8.56184 | 3457 ft | 178 kts | 255° |
| 2026-04-25 10:19 | 50.09191 | 8.54420 | 3219 ft | 162 kts | 255° |
| 2026-04-25 10:20 | 50.08885 | 8.52836 | 2990 ft | 144 kts | 255° |
| 2026-04-25 10:20 | 50.08608 | 8.51402 | 2805 ft | 135 kts | 255° |
| 2026-04-25 10:20 | 50.08348 | 8.50042 | 2631 ft | 128 kts | 255° |
| 2026-04-25 10:20 | 50.08102 | 8.48757 | 2458 ft | 122 kts | 255° |
| 2026-04-25 10:21 | 50.07865 | 8.47522 | 2299 ft | 120 kts | 255° |
| 2026-04-25 10:21 | 50.07627 | 8.46277 | 2146 ft | 120 kts | 255° |
| 2026-04-25 10:21 | 50.07397 | 8.45039 | 1973 ft | 120 kts | 254° |
| 2026-04-25 10:21 | 50.07152 | 8.43793 | 1782 ft | 120 kts | 253° |
| 2026-04-25 10:22 | 50.06882 | 8.42516 | 1593 ft | 126 kts | 252° |
| 2026-04-25 10:22 | 50.06694 | 8.41610 | 1526 ft | 130 kts | 253° |
| 2026-04-25 10:22 | 50.06353 | 8.39751 | 1303 ft | 134 kts | 255° |
| 2026-04-25 10:22 | 50.06089 | 8.38317 | 1116 ft | 138 kts | 254° |
| 2026-04-25 10:23 | 50.05819 | 8.36918 | 922 ft | 140 kts | 253° |
| 2026-04-25 10:23 | 50.05537 | 8.35481 | 742 ft | 137 kts | 255° |
| 2026-04-25 10:23 | 50.05279 | 8.34075 | 520 ft | 127 kts | 253° |
| 2026-04-25 10:23 | 50.05073 | 8.33003 | 471 ft | 77 kts | 253° |
| 2026-04-25 10:24 | 50.04951 | 8.32503 | 473 ft | 19 kts | 238° |
| 2026-04-25 10:24 | 50.04850 | 8.32488 | 471 ft | 13 kts | 160° |
| 2026-04-25 10:24 | 50.04826 | 8.32501 | 473 ft | 0 kts | 160° |
| 2026-04-25 10:24 | 50.04808 | 8.32510 | 471 ft | 6 kts | 161° |
| 2026-04-25 10:25 | 50.04750 | 8.32539 | 473 ft | 11 kts | 163° |
| 2026-04-25 10:25 | 50.04663 | 8.32579 | 473 ft | 11 kts | 163° |
| 2026-04-25 10:25 | 50.04579 | 8.32626 | 473 ft | 12 kts | 159° |
| 2026-04-25 10:25 | 50.04520 | 8.32600 | 473 ft | 11 kts | 242° |
| 2026-04-25 10:26 | 50.04497 | 8.32485 | 472 ft | 5 kts | 281° |
| 2026-04-25 10:26 | 50.04525 | 8.32488 | 472 ft | 5 kts | 38° |
| 2026-04-25 10:26 | 50.04531 | 8.32509 | 470 ft | 0 kts | 67° |